Liverpool, United Kingdom

8:11 AM BST on August 20, 2014 (GMT +0100)
Liverpool | Change Station
CLOSE
Current Station
Airport
Location: Liverpool,
Elevation: 85 ft
Nearby Weather Stations

Elev 85 ft 53.33 °N, 2.85 °W | Updated 21 minutes ago

Light Rain Showers
Light Showers Rain
52 °F
Feels Like 52 °F
N
9
Wind Variable Wind from West

Today
High -- | Low -- °F
--% Chance of Precip.
Yesterday
High -- | Low -- °F
Precip. -- in
5:59 AM 8:28 PM
Waning Crescent, 24% visible
Pressure 30.01 in
Visibility 6.2 miles
Clouds Few 2500 ft
Scattered Clouds 4600 ft
Dew Point 48 °F
Humidity 88%
Rainfall 0.00 in
Snow Depth Not available.
UV 1 out of 12
Pollen Not available.
Air Quality Not available.
Flu Activity Not available.
METAR EGGP 200650Z 27008KT 9999 -SHRA FEW025CB SCT046 11/09 Q1016

More Conditions Fewer Conditions

Pressure 30.01 in
Visibility 6.2 miles
Clouds Few 2500 ft
Scattered Clouds 4600 ft
Dew Point 48 °F
Humidity 88%
Rainfall 0.00 in
Snow Depth Not available.
UV 1 out of 12
Pollen Not available.
Air Quality Not available.
Flu Activity Not available.
METAR EGGP 200650Z 27008KT 9999 -SHRA FEW025CB SCT046 11/09 Q1016

More Conditions Fewer Conditions

10-Day Weather Forecast

Almanac

Astronomy

Aug. 20, 2014 Rise Set
Actual Time 5:59 AM BST 8:28 PM BST
Civil Twilight 5:21 AM BST 9:07 PM BST
Nautical Twilight 4:31 AM BST 9:56 PM BST
Astronomical Twilight 3:31 AM BST 10:55 PM BST
Moon 1:12 AM BST 5:17 PM BST
Length of Visible Light 15h 46m
Length of Day
14h 28m
Tomorrow will be 3m 57s shorter.
Waning Crescent, 24% of the Moon is Illuminated
Today
Waning Crescent
Aug 25
New
Sep 2
First Quarter
Sep 8
Full
Sep 15
Last Quarter

Yesterday's Extremes

Country Highs Country Lows

Community

WunderPhotos

Upload Photos

1,745,592 photos uploaded!

Nearby

Snow Depth

Not available.

Earthquake Activity

City Distance Mag. Time & Date
No recent earthquake activity has been reported nearby.
Minimum magnitude displayed is 2.5.

Coastal Water Temperatures

Place Temperature
No Stations Reporting

Nearby Weather Stations